createdAt,value
2023-01-17T00:02:00.726Z,84.36
2023-01-17T00:07:22.348Z,84.37
2023-01-17T00:12:28.974Z,84.55
2023-01-17T00:17:31.363Z,84.80
2023-01-17T00:22:52.739Z,85.07
2023-01-17T00:27:55.184Z,85.03
2023-01-17T00:32:58.030Z,85.24
2023-01-17T00:38:01.792Z,85.16
2023-01-17T00:43:24.968Z,85.05
2023-01-17T00:48:47.310Z,85.16
2023-01-17T00:54:11.980Z,85.23
2023-01-17T00:59:34.272Z,85.50
2023-01-17T01:04:55.813Z,85.51
2023-01-17T01:10:17.133Z,85.59
2023-01-17T01:15:39.525Z,85.46
2023-01-17T01:21:02.479Z,85.74
2023-01-17T01:26:24.680Z,85.97
2023-01-17T01:31:46.441Z,85.85
2023-01-17T01:36:49.906Z,86.05
2023-01-17T01:41:53.026Z,86.26
2023-01-17T01:46:56.303Z,86.24
2023-01-17T01:52:03.663Z,86.40
2023-01-17T01:57:12.303Z,86.38
2023-01-17T02:02:15.573Z,86.46
2023-01-17T02:07:51.372Z,86.39
2023-01-17T02:12:55.904Z,86.72
2023-01-17T02:18:19.855Z,86.63
2023-01-17T02:23:32.324Z,86.33
2023-01-17T02:28:40.319Z,86.49
2023-01-17T02:34:01.009Z,86.67
2023-01-17T02:39:19.214Z,86.49
2023-01-17T02:44:22.436Z,86.63
2023-01-17T02:49:28.490Z,86.37
2023-01-17T02:54:52.404Z,86.16
2023-01-17T03:00:27.485Z,86.06
2023-01-17T03:05:47.061Z,86.19
2023-01-17T03:10:50.963Z,85.99
2023-01-17T03:15:53.954Z,86.07
2023-01-17T03:20:56.987Z,86.21
2023-01-17T03:26:00.407Z,86.39
2023-01-17T03:31:02.698Z,86.49
2023-01-17T03:36:05.334Z,86.60
2023-01-17T03:41:09.362Z,86.54
2023-01-17T03:46:24.049Z,86.43
2023-01-17T03:51:28.823Z,86.49
2023-01-17T03:56:32.906Z,86.66
2023-01-17T04:01:36.105Z,86.77
2023-01-17T04:06:39.888Z,86.53
2023-01-17T04:11:44.012Z,86.20
2023-01-17T04:16:51.669Z,86.13
2023-01-17T04:21:55.088Z,86.29
2023-01-17T04:26:58.549Z,85.83
2023-01-17T04:32:01.711Z,85.59
2023-01-17T04:37:04.977Z,85.65
2023-01-17T04:42:07.605Z,85.54
2023-01-17T04:47:10.439Z,85.48
2023-01-17T04:52:15.459Z,85.39
2023-01-17T04:57:19.598Z,85.08
2023-01-17T05:02:22.664Z,85.14
2023-01-17T05:07:24.865Z,85.22
2023-01-17T05:12:29.347Z,85.30
2023-01-17T05:17:33.440Z,85.03
2023-01-17T05:22:36.641Z,85.17
2023-01-17T05:27:38.848Z,85.08
2023-01-17T05:32:41.966Z,85.31
2023-01-17T05:37:48.918Z,85.18
2023-01-17T05:42:55.433Z,85.15
2023-01-17T05:47:59.221Z,85.02
2023-01-17T05:53:08.527Z,84.81
2023-01-17T05:58:18.408Z,85.09
2023-01-17T06:03:21.330Z,85.03
2023-01-17T06:08:24.241Z,85.16
2023-01-17T06:13:28.457Z,85.32
2023-01-17T06:18:31.694Z,85.25
2023-01-17T06:23:34.365Z,85.33
2023-01-17T06:28:36.716Z,85.08
2023-01-17T06:33:40.054Z,84.93
2023-01-17T06:38:43.435Z,85.10
2023-01-17T06:43:48.855Z,85.13
2023-01-17T06:48:52.738Z,84.76
2023-01-17T06:53:55.593Z,84.98
2023-01-17T06:58:58.892Z,84.90
2023-01-17T07:04:04.169Z,84.93
2023-01-17T07:09:07.949Z,85.09
2023-01-17T07:14:14.065Z,84.76
2023-01-17T07:19:16.667Z,85.03
2023-01-17T07:24:20.321Z,84.89
2023-01-17T07:29:23.641Z,84.93
2023-01-17T07:34:29.284Z,84.72
2023-01-17T07:39:33.119Z,84.56
2023-01-17T07:44:37.159Z,84.69
2023-01-17T07:49:40.656Z,84.65
2023-01-17T07:54:43.877Z,84.52
2023-01-17T07:59:46.030Z,84.72
2023-01-17T08:04:49.201Z,84.55
2023-01-17T08:09:51.563Z,84.49
2023-01-17T08:14:53.620Z,84.51
2023-01-17T08:19:57.105Z,84.15
2023-01-17T08:25:00.614Z,83.99
2023-01-17T08:30:04.555Z,84.07
2023-01-17T08:35:08.725Z,83.86
2023-01-17T08:40:12.185Z,83.48
2023-01-17T08:45:14.643Z,83.26
2023-01-17T08:50:21.022Z,83.07
2023-01-17T08:55:23.453Z,83.01
2023-01-17T09:00:26.555Z,82.87
2023-01-17T09:05:28.318Z,82.81
2023-01-17T09:10:30.616Z,82.40
2023-01-17T09:15:32.505Z,82.23
2023-01-17T09:20:34.414Z,82.22
2023-01-17T09:25:37.133Z,82.31
2023-01-17T09:30:39.370Z,82.27
2023-01-17T09:35:42.669Z,82.12
2023-01-17T09:40:48.666Z,81.95
2023-01-17T09:45:51.642Z,81.82
2023-01-17T09:51:04.323Z,82.24
2023-01-17T09:56:13.305Z,81.88
2023-01-17T10:01:19.423Z,81.59
2023-01-17T10:06:41.882Z,81.40
2023-01-17T10:11:52.801Z,81.20
2023-01-17T10:17:29.186Z,81.20
2023-01-17T10:23:01.726Z,80.64
2023-01-17T10:28:12.626Z,80.65
2023-01-17T10:33:32.010Z,80.87
2023-01-17T10:38:44.024Z,80.30
2023-01-17T10:44:14.036Z,79.96
2023-01-17T10:49:21.711Z,79.88
2023-01-17T10:54:42.552Z,79.49
2023-01-17T10:59:45.733Z,79.33
2023-01-17T11:04:55.344Z,79.55
2023-01-17T11:10:00.040Z,79.29
2023-01-17T11:15:08.982Z,78.87
2023-01-17T11:20:17.300Z,78.70
2023-01-17T11:25:27.596Z,78.33
2023-01-17T11:30:30.330Z,77.72
2023-01-17T11:35:43.802Z,77.17
2023-01-17T11:40:49.075Z,76.96
2023-01-17T11:46:19.205Z,76.84
2023-01-17T11:51:35.528Z,76.76
2023-01-17T11:56:45.575Z,76.00
2023-01-17T12:02:10.533Z,75.94
2023-01-17T12:07:28.043Z,75.31
2023-01-17T12:13:05.716Z,75.52
2023-01-17T12:18:27.085Z,74.70
2023-01-17T12:24:00.905Z,74.47
2023-01-17T12:29:21.464Z,74.15
2023-01-17T12:34:40.392Z,73.82
2023-01-17T12:39:53.038Z,73.51
2023-01-17T12:45:10.041Z,73.49
2023-01-17T12:50:26.717Z,73.26
2023-01-17T12:55:31.977Z,72.91
2023-01-17T13:00:38.642Z,72.59
2023-01-17T13:05:45.811Z,72.41
2023-01-17T13:10:57.541Z,72.42
2023-01-17T13:16:27.754Z,71.99
2023-01-17T13:21:37.230Z,72.07
2023-01-17T13:26:55.220Z,71.95
2023-01-17T13:32:26.378Z,72.08
2023-01-17T13:37:53.455Z,71.74
2023-01-17T13:42:59.787Z,71.46
2023-01-17T13:48:23.204Z,71.12
2023-01-17T13:53:35.784Z,71.39
2023-01-17T13:58:54.999Z,70.93
2023-01-17T14:03:58.802Z,70.63
2023-01-17T14:09:27.151Z,70.86
2023-01-17T14:14:45.571Z,71.03
2023-01-17T14:19:55.697Z,71.03
2023-01-17T14:25:17.391Z,71.33
2023-01-17T14:30:25.138Z,71.24
2023-01-17T14:35:48.607Z,71.32
2023-01-17T14:41:08.566Z,71.57
2023-01-17T14:46:28.602Z,71.25
2023-01-17T14:51:35.250Z,71.13
2023-01-17T14:56:38.803Z,71.18
2023-01-17T15:01:42.046Z,71.38
2023-01-17T15:06:48.113Z,71.27
2023-01-17T15:11:52.511Z,71.07
2023-01-17T15:16:55.040Z,71.09
2023-01-17T15:21:57.980Z,70.99
2023-01-17T15:27:05.864Z,71.11
2023-01-17T15:32:19.914Z,71.41
2023-01-17T15:37:32.342Z,71.47
2023-01-17T15:42:39.057Z,71.95
2023-01-17T15:47:43.980Z,71.73
2023-01-17T15:52:53.714Z,71.79
2023-01-17T15:57:57.743Z,71.60
2023-01-17T16:03:01.450Z,71.68
2023-01-17T16:08:04.438Z,71.58
2023-01-17T16:13:09.389Z,71.57
2023-01-17T16:18:19.348Z,71.68
2023-01-17T16:23:22.526Z,71.75
2023-01-17T16:28:26.091Z,71.60
2023-01-17T16:33:28.548Z,71.49
2023-01-17T16:38:32.254Z,71.64
2023-01-17T16:43:34.913Z,71.64
2023-01-17T16:48:38.050Z,71.53
2023-01-17T16:53:41.549Z,71.41
2023-01-17T16:58:44.382Z,71.20
2023-01-17T17:03:49.571Z,71.46
2023-01-17T17:08:52.276Z,71.87
2023-01-17T17:13:57.695Z,71.53
2023-01-17T17:19:07.381Z,71.57
2023-01-17T17:24:12.930Z,72.46
2023-01-17T17:29:16.180Z,72.61
2023-01-17T17:34:18.905Z,73.12
2023-01-17T17:39:21.659Z,73.25
2023-01-17T17:44:24.443Z,73.01
2023-01-17T17:49:27.824Z,73.63
2023-01-17T17:54:32.699Z,73.61
2023-01-17T17:59:34.998Z,73.99
2023-01-17T18:04:37.515Z,74.14
2023-01-17T18:09:39.909Z,73.62
2023-01-17T18:14:42.187Z,74.25
2023-01-17T18:19:45.986Z,74.40
2023-01-17T18:24:50.433Z,74.63
2023-01-17T18:29:53.446Z,74.74
2023-01-17T18:34:58.145Z,74.95
2023-01-17T18:40:02.911Z,75.00
2023-01-17T18:45:08.536Z,75.16
2023-01-17T18:50:11.032Z,75.69
2023-01-17T18:55:13.248Z,75.43
2023-01-17T19:00:17.539Z,75.90
2023-01-17T19:05:21.323Z,76.08
2023-01-17T19:10:26.218Z,76.62
2023-01-17T19:15:32.988Z,77.05
2023-01-17T19:20:36.486Z,77.23
2023-01-17T19:25:39.787Z,77.13
2023-01-17T19:30:42.602Z,76.61
2023-01-17T19:35:45.646Z,77.06
2023-01-17T19:40:50.422Z,77.04
2023-01-17T19:46:00.208Z,76.98
2023-01-17T19:51:11.559Z,76.98
2023-01-17T19:56:24.395Z,77.08
2023-01-17T20:01:35.443Z,77.57
2023-01-17T20:06:41.457Z,77.71
2023-01-17T20:11:50.628Z,78.01
2023-01-17T20:16:56.920Z,78.52
2023-01-17T20:22:04.358Z,78.68
2023-01-17T20:27:15.982Z,78.80
2023-01-17T20:32:28.036Z,78.66
2023-01-17T20:37:36.997Z,78.55
2023-01-17T20:42:41.952Z,78.51
2023-01-17T20:47:47.478Z,77.92
2023-01-17T20:52:51.428Z,77.97
2023-01-17T20:57:55.062Z,77.78
2023-01-17T21:02:58.514Z,77.76
2023-01-17T21:08:04.158Z,78.69
2023-01-17T21:13:07.414Z,78.45
2023-01-17T21:18:10.119Z,78.09
2023-01-17T21:23:17.792Z,78.20
2023-01-17T21:28:21.573Z,78.82
2023-01-17T21:33:26.743Z,78.82
2023-01-17T21:38:31.285Z,79.02
2023-01-17T21:43:35.061Z,79.27
2023-01-17T21:48:41.029Z,79.45
2023-01-17T21:53:44.281Z,79.50
2023-01-17T21:58:53.831Z,79.30
2023-01-17T22:04:02.941Z,79.55
2023-01-17T22:09:07.142Z,79.38
2023-01-17T22:14:10.484Z,79.49
2023-01-17T22:19:12.951Z,79.69
2023-01-17T22:24:17.744Z,79.76
2023-01-17T22:29:21.515Z,80.09
2023-01-17T22:34:26.876Z,80.49
2023-01-17T22:39:29.974Z,80.35
2023-01-17T22:44:32.884Z,80.30
2023-01-17T22:49:35.305Z,80.32
2023-01-17T22:54:37.892Z,80.58
2023-01-17T22:59:40.279Z,80.56
2023-01-17T23:04:43.035Z,80.30
2023-01-17T23:09:45.981Z,80.53
2023-01-17T23:15:08.234Z,80.50
2023-01-17T23:20:12.093Z,80.81
2023-01-17T23:25:15.669Z,81.12
2023-01-17T23:30:50.868Z,80.96
2023-01-17T23:35:53.752Z,80.83
2023-01-17T23:41:26.781Z,81.02
2023-01-17T23:46:30.191Z,80.97
2023-01-17T23:51:33.144Z,81.46
2023-01-17T23:56:35.757Z,81.54
